sensor_id;sensor_type;location;lat;lon;timestamp;pressure;altitude;pressure_sealevel;temperature;humidity
60589;BME280;46421;48.610;9.334;2023-01-24T00:00:51;99319.09;;;1.07;100.00
60589;BME280;46421;48.610;9.334;2023-01-24T00:03:17;99329.34;;;1.12;100.00
60589;BME280;46421;48.610;9.334;2023-01-24T00:05:44;99335.34;;;1.14;100.00
60589;BME280;46421;48.610;9.334;2023-01-24T00:08:11;99305.69;;;0.97;100.00
60589;BME280;46421;48.610;9.334;2023-01-24T00:10:37;99311.25;;;1.07;100.00
60589;BME280;46421;48.610;9.334;2023-01-24T00:13:03;99313.63;;;1.12;100.00
60589;BME280;46421;48.610;9.334;2023-01-24T00:15:29;99306.53;;;0.98;100.00
60589;BME280;46421;48.610;9.334;2023-01-24T00:17:54;99340.59;;;1.14;100.00
60589;BME280;46421;48.610;9.334;2023-01-24T00:20:20;99353.19;;;1.23;100.00
60589;BME280;46421;48.610;9.334;2023-01-24T00:22:45;99355.03;;;1.21;100.00
60589;BME280;46421;48.610;9.334;2023-01-24T00:25:11;99354.84;;;1.08;100.00
60589;BME280;46421;48.610;9.334;2023-01-24T00:27:36;99339.91;;;1.10;100.00
60589;BME280;46421;48.610;9.334;2023-01-24T00:30:03;99350.81;;;1.18;100.00
60589;BME280;46421;48.610;9.334;2023-01-24T00:32:29;99319.22;;;1.05;100.00
60589;BME280;46421;48.610;9.334;2023-01-24T00:34:55;99341.25;;;1.17;100.00
60589;BME280;46421;48.610;9.334;2023-01-24T00:37:20;99336.44;;;1.09;100.00
60589;BME280;46421;48.610;9.334;2023-01-24T00:39:45;99322.06;;;1.01;100.00
60589;BME280;46421;48.610;9.334;2023-01-24T00:42:11;99339.31;;;1.21;100.00
60589;BME280;46421;48.610;9.334;2023-01-24T00:44:36;99302.03;;;1.00;100.00
60589;BME280;46421;48.610;9.334;2023-01-24T00:47:01;99342.03;;;1.19;100.00
60589;BME280;46421;48.610;9.334;2023-01-24T00:49:27;99340.69;;;1.12;100.00
60589;BME280;46421;48.610;9.334;2023-01-24T00:51:53;99328.06;;;1.03;100.00
60589;BME280;46421;48.610;9.334;2023-01-24T00:54:18;99352.41;;;1.21;100.00
60589;BME280;46421;48.610;9.334;2023-01-24T00:56:43;99349.13;;;1.17;100.00
60589;BME280;46421;48.610;9.334;2023-01-24T00:59:09;99343.78;;;1.03;100.00
60589;BME280;46421;48.610;9.334;2023-01-24T01:01:34;99314.22;;;1.01;100.00
60589;BME280;46421;48.610;9.334;2023-01-24T01:04:00;99354.69;;;1.11;100.00
60589;BME280;46421;48.610;9.334;2023-01-24T01:06:25;99331.72;;;1.00;100.00
60589;BME280;46421;48.610;9.334;2023-01-24T01:08:51;99323.19;;;0.97;100.00
60589;BME280;46421;48.610;9.334;2023-01-24T01:11:17;99365.16;;;1.27;100.00
60589;BME280;46421;48.610;9.334;2023-01-24T01:13:43;99369.63;;;1.25;100.00
60589;BME280;46421;48.610;9.334;2023-01-24T01:16:15;99362.97;;;1.19;100.00
60589;BME280;46421;48.610;9.334;2023-01-24T01:18:42;99361.97;;;1.22;100.00
60589;BME280;46421;48.610;9.334;2023-01-24T01:21:11;99372.09;;;1.28;100.00
60589;BME280;46421;48.610;9.334;2023-01-24T01:23:37;99370.75;;;1.21;100.00
60589;BME280;46421;48.610;9.334;2023-01-24T01:26:05;99375.88;;;1.22;100.00
60589;BME280;46421;48.610;9.334;2023-01-24T01:28:31;99377.19;;;1.31;100.00
60589;BME280;46421;48.610;9.334;2023-01-24T01:30:57;99374.81;;;1.26;100.00
60589;BME280;46421;48.610;9.334;2023-01-24T01:33:23;99370.41;;;1.27;100.00
60589;BME280;46421;48.610;9.334;2023-01-24T01:35:49;99354.69;;;1.11;100.00
60589;BME280;46421;48.610;9.334;2023-01-24T01:38:15;99374.97;;;1.07;100.00
60589;BME280;46421;48.610;9.334;2023-01-24T01:40:41;99377.34;;;1.12;100.00
60589;BME280;46421;48.610;9.334;2023-01-24T01:43:19;99376.38;;;1.13;100.00
60589;BME280;46421;48.610;9.334;2023-01-24T01:45:48;99387.22;;;1.23;100.00
60589;BME280;46421;48.610;9.334;2023-01-24T01:48:36;99377.84;;;1.19;100.00
60589;BME280;46421;48.610;9.334;2023-01-24T01:51:17;99381.91;;;1.24;100.00
60589;BME280;46421;48.610;9.334;2023-01-24T01:53:49;99352.91;;;1.12;100.00
60589;BME280;46421;48.610;9.334;2023-01-24T01:56:34;99375.97;;;1.21;100.00
60589;BME280;46421;48.610;9.334;2023-01-24T01:59:06;99382.47;;;1.30;100.00
60589;BME280;46421;48.610;9.334;2023-01-24T02:01:32;99378.59;;;1.21;100.00
60589;BME280;46421;48.610;9.334;2023-01-24T02:04:06;99375.91;;;1.06;100.00
60589;BME280;46421;48.610;9.334;2023-01-24T02:09:04;99360.53;;;1.00;100.00
60589;BME280;46421;48.610;9.334;2023-01-24T02:11:30;99388.06;;;1.23;100.00
60589;BME280;46421;48.610;9.334;2023-01-24T02:14:10;99384.38;;;1.28;100.00
60589;BME280;46421;48.610;9.334;2023-01-24T02:16:55;99386.47;;;1.21;100.00
60589;BME280;46421;48.610;9.334;2023-01-24T02:19:29;99384.09;;;1.16;100.00
60589;BME280;46421;48.610;9.334;2023-01-24T02:22:03;99382.25;;;1.18;100.00
60589;BME280;46421;48.610;9.334;2023-01-24T02:24:37;99386.81;;;1.15;100.00
60589;BME280;46421;48.610;9.334;2023-01-24T02:27:04;99381.72;;;1.12;100.00
60589;BME280;46421;48.610;9.334;2023-01-24T02:29:29;99362.13;;;1.03;100.00
60589;BME280;46421;48.610;9.334;2023-01-24T02:31:58;99372.94;;;1.13;100.00
60589;BME280;46421;48.610;9.334;2023-01-24T02:34:23;99386.72;;;1.16;100.00
60589;BME280;46421;48.610;9.334;2023-01-24T02:36:55;99379.44;;;1.05;100.00
60589;BME280;46421;48.610;9.334;2023-01-24T02:39:28;99378.03;;;1.16;100.00
60589;BME280;46421;48.610;9.334;2023-01-24T02:42:04;99378.94;;;1.15;100.00
60589;BME280;46421;48.610;9.334;2023-01-24T02:44:37;99387.47;;;1.18;100.00
60589;BME280;46421;48.610;9.334;2023-01-24T02:47:05;99386.19;;;1.09;100.00
60589;BME280;46421;48.610;9.334;2023-01-24T02:49:30;99389.75;;;1.08;100.00
60589;BME280;46421;48.610;9.334;2023-01-24T02:51:55;99383.06;;;1.19;100.00
60589;BME280;46421;48.610;9.334;2023-01-24T02:54:39;99386.28;;;1.08;100.00
60589;BME280;46421;48.610;9.334;2023-01-24T02:57:05;99391.78;;;1.19;100.00
60589;BME280;46421;48.610;9.334;2023-01-24T02:59:49;99384.00;;;1.18;100.00
60589;BME280;46421;48.610;9.334;2023-01-24T03:02:14;99366.50;;;1.02;100.00
60589;BME280;46421;48.610;9.334;2023-01-24T03:04:39;99386.19;;;1.09;100.00
60589;BME280;46421;48.610;9.334;2023-01-24T03:07:05;99388.91;;;1.08;100.00
60589;BME280;46421;48.610;9.334;2023-01-24T03:09:30;99390.69;;;1.07;100.00
60589;BME280;46421;48.610;9.334;2023-01-24T03:12:00;99390.00;;;1.04;100.00
60589;BME280;46421;48.610;9.334;2023-01-24T03:14:47;99377.75;;;0.88;100.00
60589;BME280;46421;48.610;9.334;2023-01-24T03:17:31;99400.81;;;1.14;100.00
60589;BME280;46421;48.610;9.334;2023-01-24T03:20:15;99396.50;;;1.13;100.00
60589;BME280;46421;48.610;9.334;2023-01-24T03:22:59;99402.25;;;1.03;100.00
60589;BME280;46421;48.610;9.334;2023-01-24T03:25:43;99389.75;;;1.08;100.00
60589;BME280;46421;48.610;9.334;2023-01-24T03:28:28;99365.31;;;0.92;100.00
60589;BME280;46421;48.610;9.334;2023-01-24T03:31:11;99398.97;;;1.16;100.00
60589;BME280;46421;48.610;9.334;2023-01-24T03:33:56;99393.41;;;1.22;100.00
60589;BME280;46421;48.610;9.334;2023-01-24T03:36:39;99400.63;;;1.17;100.00
60589;BME280;46421;48.610;9.334;2023-01-24T03:39:05;99398.97;;;1.16;100.00
60589;BME280;46421;48.610;9.334;2023-01-24T03:41:49;99389.91;;;1.05;100.00
60589;BME280;46421;48.610;9.334;2023-01-24T03:44:14;99394.56;;;1.16;100.00
60589;BME280;46421;48.610;9.334;2023-01-24T03:46:40;99403.88;;;1.22;100.00
60589;BME280;46421;48.610;9.334;2023-01-24T03:49:06;99408.19;;;1.23;100.00
60589;BME280;46421;48.610;9.334;2023-01-24T03:51:32;99392.78;;;1.17;100.00
60589;BME280;46421;48.610;9.334;2023-01-24T03:54:15;99401.41;;;1.19;100.00
60589;BME280;46421;48.610;9.334;2023-01-24T03:56:41;99379.84;;;0.98;100.00
60589;BME280;46421;48.610;9.334;2023-01-24T03:59:06;99403.53;;;1.12;100.00
60589;BME280;46421;48.610;9.334;2023-01-24T04:01:32;99409.47;;;1.16;100.00
60589;BME280;46421;48.610;9.334;2023-01-24T04:03:57;99397.19;;;1.16;100.00
60589;BME280;46421;48.610;9.334;2023-01-24T04:06:23;99407.56;;;1.18;100.00
60589;BME280;46421;48.610;9.334;2023-01-24T04:08:48;99405.47;;;1.24;100.00
60589;BME280;46421;48.610;9.334;2023-01-24T04:11:14;99400.25;;;1.24;100.00
60589;BME280;46421;48.610;9.334;2023-01-24T04:13:40;99411.50;;;1.26;100.00
60589;BME280;46421;48.610;9.334;2023-01-24T04:16:07;99408.50;;;1.17;100.00
60589;BME280;46421;48.610;9.334;2023-01-24T04:18:32;99409.69;;;1.27;100.00
60589;BME280;46421;48.610;9.334;2023-01-24T04:21:01;99417.75;;;1.24;100.00
60589;BME280;46421;48.610;9.334;2023-01-24T04:23:27;99412.94;;;1.32;100.00
60589;BME280;46421;48.610;9.334;2023-01-24T04:25:52;99403.34;;;1.15;100.00
60589;BME280;46421;48.610;9.334;2023-01-24T04:28:22;99404.81;;;1.21;100.00
60589;BME280;46421;48.610;9.334;2023-01-24T04:30:47;99411.53;;;1.25;100.00
60589;BME280;46421;48.610;9.334;2023-01-24T04:33:13;99377.66;;;1.06;100.00
60589;BME280;46421;48.610;9.334;2023-01-24T04:35:38;99390.34;;;1.14;100.00
60589;BME280;46421;48.610;9.334;2023-01-24T04:38:03;99385.09;;;1.14;100.00
60589;BME280;46421;48.610;9.334;2023-01-24T04:40:29;99402.53;;;1.15;100.00
60589;BME280;46421;48.610;9.334;2023-01-24T04:42:56;99416.06;;;1.23;100.00
60589;BME280;46421;48.610;9.334;2023-01-24T04:45:21;99416.28;;;1.34;100.00
60589;BME280;46421;48.610;9.334;2023-01-24T04:47:47;99418.19;;;1.32;100.00
60589;BME280;46421;48.610;9.334;2023-01-24T04:50:12;99418.25;;;1.31;100.00
60589;BME280;46421;48.610;9.334;2023-01-24T04:52:37;99420.75;;;1.16;100.00
60589;BME280;46421;48.610;9.334;2023-01-24T04:55:03;99422.97;;;1.24;100.00
60589;BME280;46421;48.610;9.334;2023-01-24T04:57:28;99415.00;;;1.09;100.00
60589;BME280;46421;48.610;9.334;2023-01-24T04:59:54;99416.34;;;1.17;100.00
60589;BME280;46421;48.610;9.334;2023-01-24T05:02:19;99414.59;;;1.17;100.00
60589;BME280;46421;48.610;9.334;2023-01-24T05:04:44;99397.28;;;1.15;100.00
60589;BME280;46421;48.610;9.334;2023-01-24T05:07:10;99420.44;;;1.22;100.00
60589;BME280;46421;48.610;9.334;2023-01-24T05:09:35;99424.84;;;1.22;100.00
60589;BME280;46421;48.610;9.334;2023-01-24T05:12:01;99406.72;;;1.01;100.00
60589;BME280;46421;48.610;9.334;2023-01-24T05:14:26;99426.94;;;1.15;100.00
60589;BME280;46421;48.610;9.334;2023-01-24T05:16:51;99429.41;;;1.18;100.00
60589;BME280;46421;48.610;9.334;2023-01-24T05:19:17;99435.81;;;1.13;100.00
60589;BME280;46421;48.610;9.334;2023-01-24T05:21:42;99429.78;;;1.10;100.00
60589;BME280;46421;48.610;9.334;2023-01-24T05:24:08;99431.00;;;1.21;100.00
60589;BME280;46421;48.610;9.334;2023-01-24T05:26:33;99442.06;;;1.10;100.00
60589;BME280;46421;48.610;9.334;2023-01-24T05:28:58;99440.03;;;1.15;100.00
60589;BME280;46421;48.610;9.334;2023-01-24T05:31:24;99442.41;;;1.20;100.00
60589;BME280;46421;48.610;9.334;2023-01-24T05:33:49;99445.50;;;1.10;100.00
60589;BME280;46421;48.610;9.334;2023-01-24T05:36:21;99446.72;;;1.21;100.00
60589;BME280;46421;48.610;9.334;2023-01-24T05:38:48;99438.75;;;1.06;100.00
60589;BME280;46421;48.610;9.334;2023-01-24T05:41:16;99451.84;;;1.06;100.00
60589;BME280;46421;48.610;9.334;2023-01-24T05:43:41;99460.28;;;1.12;100.00
60589;BME280;46421;48.610;9.334;2023-01-24T05:46:10;99459.91;;;1.19;100.00
60589;BME280;46421;48.610;9.334;2023-01-24T05:48:36;99465.38;;;1.15;100.00
60589;BME280;46421;48.610;9.334;2023-01-24T05:51:04;99461.16;;;1.12;100.00
60589;BME280;46421;48.610;9.334;2023-01-24T05:53:31;99448.47;;;1.04;100.00
60589;BME280;46421;48.610;9.334;2023-01-24T05:56:00;99453.22;;;1.14;100.00
60589;BME280;46421;48.610;9.334;2023-01-24T05:58:27;99457.69;;;1.12;100.00
60589;BME280;46421;48.610;9.334;2023-01-24T06:00:53;99464.03;;;1.23;100.00
60589;BME280;46421;48.610;9.334;2023-01-24T06:03:19;99465.72;;;1.24;100.00
60589;BME280;46421;48.610;9.334;2023-01-24T06:05:49;99447.94;;;0.98;100.00
60589;BME280;46421;48.610;9.334;2023-01-24T06:08:16;99475.94;;;1.13;100.00
60589;BME280;46421;48.610;9.334;2023-01-24T06:10:42;99469.94;;;1.11;100.00
60589;BME280;46421;48.610;9.334;2023-01-24T06:13:08;99472.91;;;1.21;100.00
60589;BME280;46421;48.610;9.334;2023-01-24T06:15:33;99472.50;;;1.29;100.00
60589;BME280;46421;48.610;9.334;2023-01-24T06:17:59;99456.31;;;1.04;100.00
60589;BME280;46421;48.610;9.334;2023-01-24T06:20:24;99467.81;;;1.18;100.00
60589;BME280;46421;48.610;9.334;2023-01-24T06:22:56;99467.00;;;1.17;100.00
60589;BME280;46421;48.610;9.334;2023-01-24T06:25:25;99467.00;;;1.17;100.00
60589;BME280;46421;48.610;9.334;2023-01-24T06:27:51;99470.63;;;1.15;100.00
60589;BME280;46421;48.610;9.334;2023-01-24T06:30:18;99470.44;;;1.18;100.00
60589;BME280;46421;48.610;9.334;2023-01-24T06:35:31;99459.81;;;1.21;100.00
60589;BME280;46421;48.610;9.334;2023-01-24T06:38:01;99459.53;;;1.09;100.00
60589;BME280;46421;48.610;9.334;2023-01-24T06:40:27;99465.97;;;1.20;100.00
60589;BME280;46421;48.610;9.334;2023-01-24T06:42:53;99475.19;;;1.11;100.00
60589;BME280;46421;48.610;9.334;2023-01-24T06:45:20;99470.44;;;1.18;100.00
60589;BME280;46421;48.610;9.334;2023-01-24T06:47:45;99458.84;;;1.06;100.00
60589;BME280;46421;48.610;9.334;2023-01-24T06:50:16;99483.25;;;1.24;100.00
60589;BME280;46421;48.610;9.334;2023-01-24T06:52:44;99481.53;;;1.23;100.00
60589;BME280;46421;48.610;9.334;2023-01-24T06:55:10;99454.38;;;1.08;100.00
60589;BME280;46421;48.610;9.334;2023-01-24T06:57:35;99485.41;;;1.16;100.00
60589;BME280;46421;48.610;9.334;2023-01-24T07:00:03;99478.41;;;1.16;100.00
60589;BME280;46421;48.610;9.334;2023-01-24T07:02:28;99483.31;;;1.22;100.00
60589;BME280;46421;48.610;9.334;2023-01-24T07:04:53;99489.22;;;1.26;100.00
60589;BME280;46421;48.610;9.334;2023-01-24T07:07:19;99488.03;;;1.16;100.00
60589;BME280;46421;48.610;9.334;2023-01-24T07:09:44;99504.78;;;1.29;100.00
60589;BME280;46421;48.610;9.334;2023-01-24T07:12:09;99511.41;;;1.36;100.00
60589;BME280;46421;48.610;9.334;2023-01-24T07:14:35;99501.81;;;1.19;100.00
60589;BME280;46421;48.610;9.334;2023-01-24T07:17:00;99496.50;;;1.21;100.00
60589;BME280;46421;48.610;9.334;2023-01-24T07:19:26;99494.66;;;1.23;100.00
60589;BME280;46421;48.610;9.334;2023-01-24T07:21:53;99506.41;;;1.32;100.00
60589;BME280;46421;48.610;9.334;2023-01-24T07:24:27;99518.97;;;1.25;100.00
60589;BME280;46421;48.610;9.334;2023-01-24T07:26:55;99520.19;;;1.35;100.00
60589;BME280;46421;48.610;9.334;2023-01-24T07:29:21;99522.69;;;1.21;100.00
60589;BME280;46421;48.610;9.334;2023-01-24T07:31:47;99520.38;;;1.32;100.00
60589;BME280;46421;48.610;9.334;2023-01-24T07:34:16;99525.41;;;1.35;100.00
60589;BME280;46421;48.610;9.334;2023-01-24T07:36:42;99526.34;;;1.34;100.00
60589;BME280;46421;48.610;9.334;2023-01-24T07:39:08;99529.75;;;1.36;100.00
60589;BME280;46421;48.610;9.334;2023-01-24T07:41:35;99529.50;;;1.41;100.00
60589;BME280;46421;48.610;9.334;2023-01-24T07:44:01;99542.16;;;1.33;100.00
60589;BME280;46421;48.610;9.334;2023-01-24T07:46:30;99532.22;;;1.39;100.00
60589;BME280;46421;48.610;9.334;2023-01-24T07:48:56;99533.19;;;1.37;100.00
60589;BME280;46421;48.610;9.334;2023-01-24T07:51:21;99547.16;;;1.37;100.00
60589;BME280;46421;48.610;9.334;2023-01-24T07:53:47;99543.38;;;1.43;100.00
60589;BME280;46421;48.610;9.334;2023-01-24T07:56:12;99539.66;;;1.47;100.00
60589;BME280;46421;48.610;9.334;2023-01-24T07:58:41;99543.03;;;1.49;100.00
60589;BME280;46421;48.610;9.334;2023-01-24T08:01:06;99554.34;;;1.50;100.00
60589;BME280;46421;48.610;9.334;2023-01-24T08:03:32;99546.59;;;1.64;100.00
60589;BME280;46421;48.610;9.334;2023-01-24T08:05:57;99556.34;;;1.62;100.00
60589;BME280;46421;48.610;9.334;2023-01-24T08:08:23;99535.91;;;1.35;100.00
60589;BME280;46421;48.610;9.334;2023-01-24T08:10:48;99568.16;;;1.53;100.00
60589;BME280;46421;48.610;9.334;2023-01-24T08:13:13;99558.59;;;1.52;100.00
60589;BME280;46421;48.610;9.334;2023-01-24T08:15:39;99569.75;;;1.56;100.00
60589;BME280;46421;48.610;9.334;2023-01-24T08:18:04;99566.38;;;1.54;100.00
60589;BME280;46421;48.610;9.334;2023-01-24T08:20:30;99567.56;;;1.48;100.00
60589;BME280;46421;48.610;9.334;2023-01-24T08:22:56;99563.38;;;1.44;100.00
60589;BME280;46421;48.610;9.334;2023-01-24T08:25:22;99546.72;;;1.29;100.00
60589;BME280;46421;48.610;9.334;2023-01-24T08:27:47;99577.13;;;1.49;100.00
60589;BME280;46421;48.610;9.334;2023-01-24T08:30:13;99566.72;;;1.48;100.00
60589;BME280;46421;48.610;9.334;2023-01-24T08:32:38;99569.75;;;1.56;100.00
60589;BME280;46421;48.610;9.334;2023-01-24T08:35:04;99575.00;;;1.56;100.00
60589;BME280;46421;48.610;9.334;2023-01-24T08:37:30;99580.44;;;1.69;100.00
60589;BME280;46421;48.610;9.334;2023-01-24T08:39:55;99578.91;;;1.65;100.00
60589;BME280;46421;48.610;9.334;2023-01-24T08:42:22;99580.28;;;1.72;100.00
60589;BME280;46421;48.610;9.334;2023-01-24T08:44:48;99577.06;;;1.67;100.00
60589;BME280;46421;48.610;9.334;2023-01-24T08:47:13;99586.69;;;1.66;100.00
60589;BME280;46421;48.610;9.334;2023-01-24T08:49:40;99586.88;;;1.79;100.00
60589;BME280;46421;48.610;9.334;2023-01-24T08:52:06;99581.13;;;1.72;100.00
60589;BME280;46421;48.610;9.334;2023-01-24T08:54:32;99562.50;;;1.61;100.00
60589;BME280;46421;48.610;9.334;2023-01-24T08:56:58;99584.84;;;1.68;100.00
60589;BME280;46421;48.610;9.334;2023-01-24T08:59:24;99608.88;;;1.77;100.00
60589;BME280;46421;48.610;9.334;2023-01-24T09:01:49;99594.91;;;1.76;100.00
60589;BME280;46421;48.610;9.334;2023-01-24T09:04:15;99615.16;;;1.74;100.00
60589;BME280;46421;48.610;9.334;2023-01-24T09:06:40;99602.44;;;1.66;100.00
60589;BME280;46421;48.610;9.334;2023-01-24T09:09:06;99605.16;;;1.81;100.00
60589;BME280;46421;48.610;9.334;2023-01-24T09:11:31;99598.31;;;1.78;99.45
60589;BME280;46421;48.610;9.334;2023-01-24T09:13:57;99608.75;;;1.96;100.00
60589;BME280;46421;48.610;9.334;2023-01-24T09:16:23;99602.88;;;1.90;99.88
60589;BME280;46421;48.610;9.334;2023-01-24T09:18:49;99607.97;;;1.94;100.00
60589;BME280;46421;48.610;9.334;2023-01-24T09:21:16;99601.53;;;1.99;100.00
60589;BME280;46421;48.610;9.334;2023-01-24T09:23:42;99609.16;;;2.04;99.41
60589;BME280;46421;48.610;9.334;2023-01-24T09:26:07;99612.47;;;2.08;99.58
60589;BME280;46421;48.610;9.334;2023-01-24T09:28:33;99607.03;;;1.95;99.65
60589;BME280;46421;48.610;9.334;2023-01-24T09:30:59;99619.41;;;2.09;98.14
60589;BME280;46421;48.610;9.334;2023-01-24T09:33:25;99611.28;;;2.13;98.51
60589;BME280;46421;48.610;9.334;2023-01-24T09:35:59;99608.81;;;2.26;97.94
60589;BME280;46421;48.610;9.334;2023-01-24T09:38:26;99605.28;;;2.11;98.22
60589;BME280;46421;48.610;9.334;2023-01-24T09:41:10;99611.63;;;2.23;96.45
60589;BME280;46421;48.610;9.334;2023-01-24T09:43:54;99613.06;;;2.13;98.45
60589;BME280;46421;48.610;9.334;2023-01-24T09:46:30;99617.28;;;2.15;98.50
60589;BME280;46421;48.610;9.334;2023-01-24T09:51:51;99614.59;;;2.17;98.16
60589;BME280;46421;48.610;9.334;2023-01-24T09:56:58;99613.31;;;2.08;98.96
60589;BME280;46421;48.610;9.334;2023-01-24T09:59:39;99592.50;;;2.05;98.08
60589;BME280;46421;48.610;9.334;2023-01-24T10:02:18;99615.53;;;2.16;98.67
60589;BME280;46421;48.610;9.334;2023-01-24T10:04:45;99619.16;;;2.29;98.14
60589;BME280;46421;48.610;9.334;2023-01-24T10:07:25;99619.75;;;2.34;96.94
60589;BME280;46421;48.610;9.334;2023-01-24T10:17:52;99612.28;;;2.43;97.36
60589;BME280;46421;48.610;9.334;2023-01-24T10:21:03;99619.03;;;2.63;97.01
60589;BME280;46421;48.610;9.334;2023-01-24T10:23:34;99605.63;;;2.37;97.89
60589;BME280;46421;48.610;9.334;2023-01-24T10:26:17;99614.50;;;2.50;96.93
60589;BME280;46421;48.610;9.334;2023-01-24T10:28:47;99619.50;;;2.55;96.18
60589;BME280;46421;48.610;9.334;2023-01-24T10:31:26;99567.78;;;2.25;96.64
60589;BME280;46421;48.610;9.334;2023-01-24T10:33:58;99613.22;;;2.42;97.74
60589;BME280;46421;48.610;9.334;2023-01-24T10:39:12;99617.06;;;2.36;98.04
60589;BME280;46421;48.610;9.334;2023-01-24T10:41:38;99616.03;;;2.39;97.07
60589;BME280;46421;48.610;9.334;2023-01-24T10:44:26;99593.25;;;2.23;97.63
60589;BME280;46421;48.610;9.334;2023-01-24T10:47:16;99610.06;;;2.51;96.80
60589;BME280;46421;48.610;9.334;2023-01-24T10:50:00;99610.94;;;2.51;96.91
60589;BME280;46421;48.610;9.334;2023-01-24T10:52:26;99608.31;;;2.51;96.96
60589;BME280;46421;48.610;9.334;2023-01-24T10:54:58;99611.53;;;2.41;97.98
60589;BME280;46421;48.610;9.334;2023-01-24T10:57:42;99610.09;;;2.35;97.24
60589;BME280;46421;48.610;9.334;2023-01-24T11:02:50;99602.72;;;2.58;97.13
60589;BME280;46421;48.610;9.334;2023-01-24T11:05:17;99582.13;;;2.50;96.26
60589;BME280;46421;48.610;9.334;2023-01-24T11:07:52;99600.09;;;2.58;94.50
60589;BME280;46421;48.610;9.334;2023-01-24T11:10:24;99591.53;;;2.54;96.70
60589;BME280;46421;48.610;9.334;2023-01-24T11:13:00;99595.66;;;2.58;96.24
60589;BME280;46421;48.610;9.334;2023-01-24T11:15:29;99599.88;;;2.61;96.80
60589;BME280;46421;48.610;9.334;2023-01-24T11:18:06;99593.97;;;2.57;96.31
60589;BME280;46421;48.610;9.334;2023-01-24T11:20:34;99589.13;;;2.65;96.48
60589;BME280;46421;48.610;9.334;2023-01-24T11:28:28;99583.84;;;2.81;94.60
60589;BME280;46421;48.610;9.334;2023-01-24T11:31:04;99575.31;;;2.78;95.69
60589;BME280;46421;48.610;9.334;2023-01-24T11:42:34;99581.75;;;2.72;95.16
60589;BME280;46421;48.610;9.334;2023-01-24T11:50:45;99549.88;;;2.48;95.77
60589;BME280;46421;48.610;9.334;2023-01-24T11:56:14;99560.25;;;2.65;94.89
60589;BME280;46421;48.610;9.334;2023-01-24T12:04:44;99555.75;;;2.67;95.34
60589;BME280;46421;48.610;9.334;2023-01-24T12:13:03;99553.13;;;2.67;95.48
60589;BME280;46421;48.610;9.334;2023-01-24T12:19:08;99553.00;;;2.85;94.26
60589;BME280;46421;48.610;9.334;2023-01-24T12:21:32;99552.50;;;2.78;95.66
60589;BME280;46421;48.610;9.334;2023-01-24T12:24:21;99544.25;;;2.84;95.93
60589;BME280;46421;48.610;9.334;2023-01-24T12:26:53;99540.44;;;2.90;95.58
60589;BME280;46421;48.610;9.334;2023-01-24T12:29:33;99536.28;;;2.72;97.26
60589;BME280;46421;48.610;9.334;2023-01-24T12:34:50;99510.59;;;2.77;95.73
60589;BME280;46421;48.610;9.334;2023-01-24T12:39:58;99542.53;;;2.99;95.09
60589;BME280;46421;48.610;9.334;2023-01-24T12:45:30;99516.88;;;2.74;95.80
60589;BME280;46421;48.610;9.334;2023-01-24T12:48:16;99543.06;;;2.90;95.20
60589;BME280;46421;48.610;9.334;2023-01-24T12:50:59;99528.41;;;2.72;96.43
60589;BME280;46421;48.610;9.334;2023-01-24T12:53:41;99529.25;;;2.87;95.41
60589;BME280;46421;48.610;9.334;2023-01-24T12:56:24;99523.63;;;2.78;95.93
60589;BME280;46421;48.610;9.334;2023-01-24T12:58:53;99521.22;;;2.90;95.29
60589;BME280;46421;48.610;9.334;2023-01-24T13:02:24;99499.13;;;2.63;96.06
60589;BME280;46421;48.610;9.334;2023-01-24T13:07:04;99525.44;;;2.92;95.25
60589;BME280;46421;48.610;9.334;2023-01-24T13:12:24;99525.97;;;2.83;96.11
60589;BME280;46421;48.610;9.334;2023-01-24T13:15:00;99524.22;;;2.83;96.31
60589;BME280;46421;48.610;9.334;2023-01-24T13:23:26;99524.22;;;2.83;95.67
60589;BME280;46421;48.610;9.334;2023-01-24T13:26:13;99523.63;;;2.78;94.65
60589;BME280;46421;48.610;9.334;2023-01-24T13:31:29;99512.56;;;2.88;95.04
60589;BME280;46421;48.610;9.334;2023-01-24T13:34:01;99447.94;;;2.40;95.86
60589;BME280;46421;48.610;9.334;2023-01-24T13:36:37;99518.00;;;2.84;95.65
60589;BME280;46421;48.610;9.334;2023-01-24T13:39:05;99524.09;;;2.85;96.00
60589;BME280;46421;48.610;9.334;2023-01-24T13:41:37;99510.59;;;2.77;96.34
60589;BME280;46421;48.610;9.334;2023-01-24T13:46:56;99527.41;;;2.89;95.28
60589;BME280;46421;48.610;9.334;2023-01-24T13:51:57;99522.59;;;2.81;96.10
60589;BME280;46421;48.610;9.334;2023-01-24T13:54:40;99516.31;;;2.83;95.46
60589;BME280;46421;48.610;9.334;2023-01-24T13:57:17;99524.28;;;2.82;96.49
60589;BME280;46421;48.610;9.334;2023-01-24T14:00:02;99534.78;;;2.82;94.85
60589;BME280;46421;48.610;9.334;2023-01-24T14:02:35;99520.06;;;2.79;96.46
60589;BME280;46421;48.610;9.334;2023-01-24T14:10:45;99532.91;;;2.84;96.52
60589;BME280;46421;48.610;9.334;2023-01-24T14:19:33;99546.16;;;2.82;97.13
60589;BME280;46421;48.610;9.334;2023-01-24T14:22:36;99541.84;;;2.81;96.27
60589;BME280;46421;48.610;9.334;2023-01-24T14:25:23;99549.47;;;3.00;95.95
60589;BME280;46421;48.610;9.334;2023-01-24T14:27:58;99540.34;;;2.92;96.80
60589;BME280;46421;48.610;9.334;2023-01-24T14:30:38;99550.47;;;2.83;96.71
60589;BME280;46421;48.610;9.334;2023-01-24T14:33:28;99554.88;;;2.83;96.88
60589;BME280;46421;48.610;9.334;2023-01-24T14:36:00;99549.34;;;2.88;96.49
60589;BME280;46421;48.610;9.334;2023-01-24T14:38:26;99562.50;;;3.02;95.93
60589;BME280;46421;48.610;9.334;2023-01-24T14:40:52;99561.44;;;2.90;96.30
60589;BME280;46421;48.610;9.334;2023-01-24T14:43:19;99565.00;;;2.89;97.03
60589;BME280;46421;48.610;9.334;2023-01-24T14:45:46;99564.34;;;2.85;97.25
60589;BME280;46421;48.610;9.334;2023-01-24T14:48:20;99575.13;;;2.81;96.34
60589;BME280;46421;48.610;9.334;2023-01-24T14:50:59;99569.28;;;2.76;96.99
60589;BME280;46421;48.610;9.334;2023-01-24T14:53:29;99546.13;;;2.68;96.94
60589;BME280;46421;48.610;9.334;2023-01-24T14:56:12;99574.00;;;2.85;96.78
60589;BME280;46421;48.610;9.334;2023-01-24T14:58:39;99575.22;;;2.79;97.15